createdAt,value
2023-04-26T00:00:10.629Z,1.7
2023-04-26T00:01:12.680Z,1.7
2023-04-26T00:02:14.649Z,1.7
2023-04-26T00:03:21.188Z,1.7
2023-04-26T00:04:21.122Z,1.7
2023-04-26T00:05:21.070Z,1.7
2023-04-26T00:06:22.657Z,1.7
2023-04-26T00:07:24.646Z,1.7
2023-04-26T00:08:26.620Z,1.7
2023-04-26T00:09:28.632Z,1.7
2023-04-26T00:10:30.638Z,1.7
2023-04-26T00:11:33.678Z,1.7
2023-04-26T00:12:35.636Z,1.7
2023-04-26T00:13:37.634Z,1.7
2023-04-26T00:14:39.659Z,1.7
2023-04-26T00:15:41.644Z,1.7
2023-04-26T00:16:43.726Z,1.7
2023-04-26T00:26:04.740Z,1.8
2023-04-26T00:27:06.671Z,1.8
2023-04-26T00:28:08.669Z,1.8
2023-04-26T00:29:10.662Z,1.8
2023-04-26T00:30:12.679Z,1.8
2023-04-26T00:31:14.742Z,1.8
2023-04-26T00:32:16.662Z,1.8
2023-04-26T00:33:18.666Z,1.8
2023-04-26T00:34:20.734Z,1.8
2023-04-26T00:35:22.667Z,1.8
2023-04-26T00:36:24.711Z,1.8
2023-04-26T00:37:26.686Z,1.8
2023-04-26T00:38:28.671Z,1.8
2023-04-26T00:39:30.675Z,1.8
2023-04-26T00:40:32.715Z,1.9
2023-04-26T00:41:34.675Z,1.9
2023-04-26T00:42:36.679Z,2
2023-04-26T00:43:38.681Z,2
2023-04-26T00:44:40.679Z,2
2023-04-26T00:45:43.792Z,2
2023-04-26T00:46:45.713Z,2
2023-04-26T00:47:47.746Z,1.9
2023-04-26T00:48:50.040Z,1.9
2023-04-26T00:49:51.681Z,1.9
2023-04-26T00:50:53.748Z,1.8
2023-04-26T00:51:55.673Z,1.8
2023-04-26T00:52:58.737Z,1.8
2023-04-26T00:54:01.693Z,1.8
2023-04-26T00:55:03.707Z,1.8
2023-04-26T00:56:05.818Z,1.8
2023-04-26T00:57:07.680Z,1.8
2023-04-26T00:58:09.688Z,1.8
2023-04-26T00:59:11.679Z,1.9
2023-04-26T01:00:13.681Z,1.8
2023-04-26T01:01:16.808Z,1.9
2023-04-26T01:02:18.967Z,1.9
2023-04-26T01:03:20.848Z,1.9
2023-04-26T01:04:22.782Z,1.9
2023-04-26T01:05:24.706Z,1.9
2023-04-26T01:06:27.760Z,1.9
2023-04-26T01:07:30.736Z,1.8
2023-04-26T01:08:32.690Z,1.8
2023-04-26T01:09:34.704Z,1.8
2023-04-26T01:10:36.684Z,1.9
2023-04-26T01:11:38.756Z,1.9
2023-04-26T01:12:40.730Z,1.9
2023-04-26T01:13:42.765Z,1.9
2023-04-26T01:14:44.712Z,1.9
2023-04-26T01:15:46.713Z,1.9
2023-04-26T01:16:48.805Z,1.9
2023-04-26T01:17:50.792Z,2
2023-04-26T01:18:53.097Z,2
2023-04-26T01:19:54.712Z,2
2023-04-26T01:20:58.989Z,2
2023-04-26T01:22:01.751Z,2
2023-04-26T01:23:03.764Z,2
2023-04-26T01:24:05.704Z,2
2023-04-26T01:25:07.718Z,2.1
2023-04-26T01:26:09.698Z,2.1
2023-04-26T01:27:11.717Z,2.2
2023-04-26T01:28:13.828Z,2.2
2023-04-26T01:29:15.699Z,2.2
2023-04-26T01:30:17.777Z,2.2
2023-04-26T01:31:19.768Z,2.3
2023-04-26T01:32:21.701Z,2.3
2023-04-26T01:33:23.763Z,2.3
2023-04-26T01:34:25.705Z,2.2
2023-04-26T01:35:27.749Z,2.2
2023-04-26T01:36:29.722Z,2.2
2023-04-26T01:37:31.738Z,2.2
2023-04-26T01:38:33.718Z,2.2
2023-04-26T01:39:35.717Z,2.1
2023-04-26T01:40:37.712Z,2.1
2023-04-26T01:41:39.726Z,2.1
2023-04-26T01:42:41.776Z,2.1
2023-04-26T01:43:43.717Z,2.1
2023-04-26T01:44:45.717Z,2.1
2023-04-26T01:45:47.798Z,2.1
2023-04-26T01:46:49.876Z,2.1
2023-04-26T01:47:51.781Z,2.1
2023-04-26T01:48:55.008Z,2.1
2023-04-26T01:49:56.718Z,2.2
2023-04-26T01:50:58.821Z,2.2
2023-04-26T01:52:00.778Z,2.2
2023-04-26T01:53:02.718Z,2.2
2023-04-26T01:54:04.725Z,2.2
2023-04-26T01:55:06.781Z,2.2
2023-04-26T01:56:08.782Z,2.2
2023-04-26T01:57:10.743Z,2.2
2023-04-26T01:58:12.740Z,2.2
2023-04-26T01:59:14.717Z,2.2
2023-04-26T02:00:16.780Z,2.2
2023-04-26T02:01:18.782Z,2.2
2023-04-26T02:02:20.758Z,2.2
2023-04-26T02:03:22.808Z,2.2
2023-04-26T02:04:25.726Z,2.2
2023-04-26T02:05:27.986Z,2.2
2023-04-26T02:06:29.724Z,2.2
2023-04-26T02:07:31.789Z,2.2
2023-04-26T02:08:34.725Z,2.2
2023-04-26T02:09:36.726Z,2.2
2023-04-26T02:10:38.784Z,2.2
2023-04-26T02:11:40.730Z,2.2
2023-04-26T02:12:42.823Z,2.2
2023-04-26T02:13:44.730Z,2.2
2023-04-26T02:14:46.732Z,2.2
2023-04-26T02:15:48.857Z,2.2
2023-04-26T02:16:50.747Z,2.2
2023-04-26T02:18:55.114Z,2.2
2023-04-26T02:19:56.734Z,2.2
2023-04-26T02:21:02.793Z,2.2
2023-04-26T02:22:04.734Z,2.2
2023-04-26T02:23:06.793Z,2.2
2023-04-26T02:24:08.740Z,2.2
2023-04-26T02:25:10.753Z,2.2
2023-04-26T02:26:12.805Z,2.2
2023-04-26T02:27:14.782Z,2.2
2023-04-26T02:28:16.834Z,2.2
2023-04-26T02:29:21.188Z,2.2
2023-04-26T02:30:20.748Z,2.2
2023-04-26T02:31:23.255Z,2.2
2023-04-26T02:32:24.778Z,2.2
2023-04-26T02:33:26.750Z,2.2
2023-04-26T02:34:28.770Z,2.2
2023-04-26T02:35:30.748Z,2.1
2023-04-26T02:36:32.834Z,2.2
2023-04-26T02:37:34.748Z,2.2
2023-04-26T02:38:36.818Z,2.2
2023-04-26T02:39:38.765Z,2.2
2023-04-26T02:40:40.767Z,2.2
2023-04-26T02:41:42.820Z,2.2
2023-04-26T02:42:45.818Z,2.3
2023-04-26T02:43:48.750Z,2.3
2023-04-26T02:44:50.755Z,2.4
2023-04-26T02:45:53.752Z,2.4
2023-04-26T02:46:55.879Z,2.4
2023-04-26T02:47:58.833Z,2.4
2023-04-26T02:49:01.756Z,2.4
2023-04-26T02:50:04.775Z,2.4
2023-04-26T02:51:06.764Z,2.3
2023-04-26T02:52:08.823Z,2.3
2023-04-26T02:53:10.782Z,2.3
2023-04-26T02:55:14.768Z,2.3
2023-04-26T02:56:16.754Z,2.3
2023-04-26T02:57:18.804Z,2.4
2023-04-26T02:58:20.834Z,2.4
2023-04-26T02:59:22.790Z,2.4
2023-04-26T03:00:24.834Z,2.3
2023-04-26T03:01:26.845Z,2.3
2023-04-26T03:02:29.909Z,2.3
2023-04-26T03:03:31.929Z,2.3
2023-04-26T03:04:33.767Z,2.3
2023-04-26T03:06:37.768Z,2.3
2023-04-26T03:07:39.831Z,2.2
2023-04-26T03:08:41.768Z,2.2
2023-04-26T03:09:43.782Z,2.2
2023-04-26T03:11:01.615Z,2.2
2023-04-26T03:11:50.211Z,2.2
2023-04-26T03:12:50.803Z,2.3
2023-04-26T03:13:52.775Z,2.3
2023-04-26T03:14:54.771Z,2.4
2023-04-26T03:15:56.818Z,2.4
2023-04-26T03:16:58.901Z,2.4
2023-04-26T03:18:02.874Z,2.4
2023-04-26T03:19:04.781Z,2.4
2023-04-26T03:20:06.793Z,2.4
2023-04-26T03:21:08.779Z,2.4
2023-04-26T03:22:10.790Z,2.3
2023-04-26T03:23:12.845Z,2.3
2023-04-26T03:24:14.780Z,2.3
2023-04-26T03:25:16.773Z,2.2
2023-04-26T03:26:18.777Z,2.2
2023-04-26T03:27:21.778Z,2.2
2023-04-26T03:28:23.879Z,2.2
2023-04-26T03:29:25.804Z,2.2
2023-04-26T03:30:27.784Z,2.2
2023-04-26T03:31:29.911Z,2.2
2023-04-26T03:32:31.798Z,2.2
2023-04-26T03:33:33.860Z,2.3
2023-04-26T03:34:35.805Z,2.3
2023-04-26T03:35:38.814Z,2.3
2023-04-26T03:36:40.784Z,2.3
2023-04-26T03:37:42.788Z,2.3
2023-04-26T03:38:44.862Z,2.3
2023-04-26T03:39:46.805Z,2.3
2023-04-26T03:40:48.792Z,2.3
2023-04-26T03:41:50.792Z,2.4
2023-04-26T03:42:52.809Z,2.4
2023-04-26T03:43:54.918Z,2.4
2023-04-26T03:44:56.811Z,2.4
2023-04-26T03:45:58.837Z,2.4
2023-04-26T03:47:02.783Z,2.5
2023-04-26T03:48:04.874Z,2.5
2023-04-26T03:49:06.856Z,2.4
2023-04-26T03:50:08.847Z,2.4
2023-04-26T03:51:10.822Z,2.4
2023-04-26T03:52:12.861Z,2.4
2023-04-26T03:53:14.797Z,2.5
2023-04-26T03:54:16.809Z,2.5
2023-04-26T03:55:18.877Z,2.5
2023-04-26T03:56:20.810Z,2.4
2023-04-26T03:57:22.816Z,2.5
2023-04-26T03:58:24.804Z,2.5
2023-04-26T03:59:26.813Z,2.5
2023-04-26T04:00:29.857Z,2.5
2023-04-26T04:01:31.802Z,2.5
2023-04-26T04:02:33.973Z,2.5
2023-04-26T04:03:37.715Z,2.5
2023-04-26T04:04:39.027Z,2.5
2023-04-26T04:05:40.944Z,2.5
2023-04-26T04:06:42.861Z,2.5
2023-04-26T04:07:44.824Z,2.5
2023-04-26T04:08:46.803Z,2.5
2023-04-26T04:09:48.802Z,2.5
2023-04-26T04:10:50.863Z,2.5
2023-04-26T04:11:52.807Z,2.5
2023-04-26T04:12:54.894Z,2.5
2023-04-26T04:13:56.831Z,2.5
2023-04-26T04:15:02.930Z,2.5
2023-04-26T04:16:04.884Z,2.5
2023-04-26T04:17:07.893Z,2.5
2023-04-26T04:18:09.824Z,2.5
2023-04-26T04:19:12.867Z,2.5
2023-04-26T04:20:14.869Z,2.6
2023-04-26T04:21:16.822Z,2.6
2023-04-26T04:22:18.878Z,2.6
2023-04-26T04:23:20.830Z,2.7
2023-04-26T04:24:22.908Z,2.7
2023-04-26T04:25:24.887Z,2.8
2023-04-26T04:26:26.815Z,2.7
2023-04-26T04:27:28.880Z,2.8
2023-04-26T04:28:30.830Z,2.8
2023-04-26T04:29:32.842Z,2.8
2023-04-26T04:30:34.885Z,2.8
2023-04-26T04:31:36.990Z,2.8
2023-04-26T04:32:38.905Z,2.8
2023-04-26T04:33:41.015Z,2.8
2023-04-26T04:34:42.824Z,2.7
2023-04-26T04:35:44.898Z,2.7
2023-04-26T04:36:46.819Z,2.7
2023-04-26T04:37:48.890Z,2.7
2023-04-26T04:38:51.054Z,2.7
2023-04-26T04:39:52.841Z,2.7
2023-04-26T04:40:54.846Z,2.7
2023-04-26T04:41:56.833Z,2.7
2023-04-26T04:42:58.859Z,2.7
2023-04-26T04:45:04.905Z,2.7
2023-04-26T04:46:06.874Z,2.7
2023-04-26T04:47:08.852Z,2.7
2023-04-26T04:48:10.866Z,2.7
2023-04-26T04:49:12.952Z,2.8
2023-04-26T04:50:14.853Z,2.8
2023-04-26T04:51:16.880Z,2.8
2023-04-26T04:52:19.268Z,2.8
2023-04-26T04:53:20.855Z,2.8
2023-04-26T04:54:22.842Z,2.8
2023-04-26T04:55:24.840Z,2.8
2023-04-26T04:56:26.849Z,2.8
2023-04-26T04:57:28.858Z,2.8
2023-04-26T04:58:30.826Z,2.7
2023-04-26T04:59:32.840Z,2.8
2023-04-26T05:00:34.854Z,2.8
2023-04-26T05:01:36.875Z,2.8
2023-04-26T05:02:38.883Z,2.8
2023-04-26T05:03:41.168Z,2.8
2023-04-26T05:04:43.039Z,2.7
2023-04-26T05:05:44.869Z,2.7
2023-04-26T05:06:46.921Z,2.7
2023-04-26T05:07:48.874Z,2.7
2023-04-26T05:08:50.858Z,2.7
2023-04-26T05:09:52.864Z,2.7
2023-04-26T05:10:54.844Z,2.7
2023-04-26T05:11:56.858Z,2.8
2023-04-26T05:12:58.914Z,2.8
2023-04-26T05:14:02.865Z,2.7
2023-04-26T05:15:05.931Z,2.7
2023-04-26T05:16:07.946Z,2.7
2023-04-26T05:17:09.850Z,2.7
2023-04-26T05:18:12.010Z,2.7
2023-04-26T05:19:13.858Z,2.7
2023-04-26T05:20:15.856Z,2.7
2023-04-26T05:21:17.928Z,2.7
2023-04-26T05:22:19.874Z,2.7
2023-04-26T05:23:21.940Z,2.7
2023-04-26T05:25:26.861Z,2.8
2023-04-26T05:26:28.922Z,2.7
2023-04-26T05:27:31.869Z,2.7
2023-04-26T05:28:33.916Z,2.8
2023-04-26T05:29:35.872Z,2.8
2023-04-26T05:30:37.946Z,2.8
2023-04-26T05:31:39.959Z,2.8
2023-04-26T05:32:41.928Z,2.8
2023-04-26T05:33:44.154Z,2.8
2023-04-26T05:34:45.860Z,2.8
2023-04-26T05:35:47.911Z,2.8
2023-04-26T05:36:49.866Z,2.8
2023-04-26T05:37:51.871Z,2.8
2023-04-26T05:39:21.263Z,2.8
2023-04-26T05:40:21.199Z,2.9
2023-04-26T05:41:21.210Z,2.9
2023-04-26T05:42:21.207Z,2.9
2023-04-26T05:43:21.201Z,2.9
2023-04-26T05:45:08.000Z,2.9
2023-04-26T05:46:09.929Z,2.9
2023-04-26T05:47:11.871Z,2.9
2023-04-26T05:48:13.903Z,2.9
2023-04-26T05:49:15.888Z,2.9
2023-04-26T05:50:17.920Z,2.9
2023-04-26T05:51:19.898Z,2.9
2023-04-26T05:52:21.884Z,2.9
2023-04-26T05:53:23.943Z,2.9
2023-04-26T05:54:25.894Z,2.9
2023-04-26T05:55:27.993Z,2.9
2023-04-26T05:56:29.872Z,2.9
2023-04-26T05:57:31.903Z,2.9
2023-04-26T05:58:33.885Z,2.9
2023-04-26T05:59:35.881Z,2.9
2023-04-26T06:00:38.005Z,3
2023-04-26T06:01:39.881Z,3
2023-04-26T06:03:21.498Z,3
2023-04-26T06:04:45.947Z,3
2023-04-26T06:05:48.018Z,3
2023-04-26T06:06:49.899Z,3
2023-04-26T06:07:52.884Z,3
2023-04-26T06:08:54.882Z,3
2023-04-26T06:09:56.875Z,3
2023-04-26T06:11:21.348Z,3
2023-04-26T06:12:21.223Z,3
2023-04-26T06:13:21.234Z,3.1
2023-04-26T06:14:29.889Z,3.1
2023-04-26T06:15:21.234Z,3.1
2023-04-26T06:16:21.447Z,3.1
2023-04-26T06:18:15.954Z,3.1
2023-04-26T06:19:17.898Z,3.1
2023-04-26T06:20:19.905Z,3.1
2023-04-26T06:21:22.030Z,3.2
2023-04-26T06:22:23.891Z,3.2
2023-04-26T06:23:25.892Z,3.2
2023-04-26T06:24:27.943Z,3.2
2023-04-26T06:25:30.021Z,3.2
2023-04-26T06:26:31.906Z,3.2
2023-04-26T06:27:34.954Z,3.2
2023-04-26T06:28:36.884Z,3.3
2023-04-26T06:29:38.905Z,3.3
2023-04-26T06:31:55.872Z,3.4
2023-04-26T06:32:45.003Z,3.4
2023-04-26T06:33:46.930Z,3.4
2023-04-26T06:34:48.912Z,3.4
2023-04-26T06:35:50.953Z,3.5
2023-04-26T06:38:09.935Z,3.4
2023-04-26T06:39:11.864Z,3.4
2023-04-26T06:40:13.875Z,3.4
2023-04-26T06:41:15.939Z,3.4
2023-04-26T06:42:17.876Z,3.4
2023-04-26T06:43:19.870Z,3.4
2023-04-26T06:44:21.879Z,3.4
2023-04-26T06:45:23.924Z,3.4
2023-04-26T06:46:25.884Z,3.4
2023-04-26T06:47:27.966Z,3.4
2023-04-26T06:48:29.867Z,3.4
2023-04-26T06:49:31.852Z,3.4
2023-04-26T06:50:33.859Z,3.4
2023-04-26T06:51:35.894Z,3.4
2023-04-26T06:52:37.987Z,3.4
2023-04-26T06:54:34.582Z,3.4
2023-04-26T06:55:21.294Z,3.4
2023-04-26T06:56:21.242Z,3.4
2023-04-26T06:57:21.301Z,3.4
2023-04-26T06:58:21.342Z,3.4
2023-04-26T06:59:21.252Z,3.4
2023-04-26T07:00:21.260Z,3.4
2023-04-26T07:01:21.313Z,3.4
2023-04-26T07:02:21.416Z,3.4
2023-04-26T07:03:22.349Z,3.4
2023-04-26T07:04:21.503Z,3.4
2023-04-26T07:05:21.671Z,3.4
2023-04-26T07:06:21.265Z,3.4
2023-04-26T07:07:21.316Z,3.4
2023-04-26T07:08:21.268Z,3.3
2023-04-26T07:09:21.337Z,3.3
2023-04-26T07:10:21.282Z,3.3
2023-04-26T07:12:21.261Z,3.3
2023-04-26T07:13:22.532Z,3.3
2023-04-26T07:14:25.537Z,3.3
2023-04-26T07:15:27.526Z,3.3
2023-04-26T07:16:29.541Z,3.3
2023-04-26T07:17:31.610Z,3.4
2023-04-26T07:18:33.541Z,3.4
2023-04-26T07:19:35.537Z,3.5
2023-04-26T07:20:37.536Z,3.5
2023-04-26T07:21:39.536Z,3.7
2023-04-26T07:22:41.532Z,3.7
2023-04-26T07:23:43.557Z,3.8
2023-04-26T07:24:45.538Z,3.9
2023-04-26T07:25:47.528Z,4
2023-04-26T07:26:49.593Z,4.1
2023-04-26T07:27:51.532Z,4.2
2023-04-26T07:28:53.530Z,4.3
2023-04-26T07:29:55.545Z,4.4
2023-04-26T07:30:57.543Z,4.4
2023-04-26T07:31:59.576Z,4.5
2023-04-26T07:33:01.635Z,4.5
2023-04-26T07:34:03.594Z,4.5
2023-04-26T07:35:05.589Z,4.5
2023-04-26T07:36:09.620Z,4.5
2023-04-26T07:37:11.548Z,4.6
2023-04-26T07:38:13.551Z,4.6
2023-04-26T07:39:15.588Z,4.6
2023-04-26T07:40:17.653Z,4.6
2023-04-26T07:41:19.547Z,4.6
2023-04-26T07:42:21.653Z,4.6
2023-04-26T07:43:23.563Z,4.6
2023-04-26T07:44:25.552Z,4.5
2023-04-26T07:45:27.612Z,4.5
2023-04-26T07:53:21.422Z,4.5
2023-04-26T07:55:56.690Z,4.5
2023-04-26T07:58:00.792Z,4.5
2023-04-26T08:02:43.423Z,4.5
2023-04-26T08:05:36.037Z,4.6
2023-04-26T08:09:21.892Z,4.7
2023-04-26T08:13:56.144Z,4.8
2023-04-26T08:14:59.149Z,4.8
2023-04-26T08:18:21.357Z,4.7
2023-04-26T08:19:44.020Z,4.7
2023-04-26T08:21:37.052Z,4.7
2023-04-26T08:25:47.238Z,4.7
2023-04-26T08:26:47.453Z,4.7
2023-04-26T08:27:49.385Z,4.7
2023-04-26T08:28:51.399Z,4.7
2023-04-26T08:29:53.396Z,4.7
2023-04-26T08:30:55.483Z,4.7
2023-04-26T08:31:57.404Z,4.7
2023-04-26T08:32:59.533Z,4.8
2023-04-26T08:34:01.392Z,4.8
2023-04-26T08:35:03.402Z,4.9
2023-04-26T08:36:05.391Z,5.1
2023-04-26T08:37:07.391Z,5.2
2023-04-26T08:38:09.460Z,5.3
2023-04-26T08:39:11.384Z,5.5
2023-04-26T08:40:13.402Z,5.5
2023-04-26T08:41:15.456Z,5.6
2023-04-26T08:42:17.460Z,5.6
2023-04-26T08:43:19.406Z,5.6
2023-04-26T08:44:21.458Z,5.6
2023-04-26T08:45:23.406Z,5.6
2023-04-26T08:46:25.434Z,5.6
2023-04-26T08:48:29.437Z,5.5
2023-04-26T08:49:33.404Z,5.5
2023-04-26T08:50:35.406Z,5.4
2023-04-26T08:51:37.402Z,5.4
2023-04-26T08:52:39.421Z,5.4
2023-04-26T08:53:41.420Z,5.4
2023-04-26T08:54:43.415Z,5.3
2023-04-26T08:55:45.411Z,5.3
2023-04-26T08:56:47.424Z,5.3
2023-04-26T08:57:49.745Z,5.3
2023-04-26T08:58:51.411Z,5.3
2023-04-26T08:59:53.431Z,5.3
2023-04-26T09:00:55.421Z,5.3
2023-04-26T09:01:57.445Z,5.3
2023-04-26T09:02:59.517Z,5.3
2023-04-26T09:04:01.693Z,5.4
2023-04-26T09:05:03.636Z,5.6
2023-04-26T09:06:05.414Z,5.7
2023-04-26T09:07:07.407Z,5.9
2023-04-26T09:08:09.431Z,6
2023-04-26T09:09:11.508Z,6.1
2023-04-26T09:10:13.479Z,6.2
2023-04-26T09:11:15.447Z,6.2
2023-04-26T09:12:17.413Z,6.2
2023-04-26T09:13:19.446Z,6.3
2023-04-26T09:14:21.465Z,6.2
2023-04-26T09:15:23.544Z,6.2
2023-04-26T09:16:25.527Z,6.1
2023-04-26T09:17:27.495Z,6.1
2023-04-26T09:18:29.451Z,6.1
2023-04-26T09:19:33.434Z,6
2023-04-26T09:20:35.487Z,6
2023-04-26T09:21:37.436Z,6
2023-04-26T09:22:39.435Z,5.9
2023-04-26T09:23:41.432Z,5.9
2023-04-26T09:24:43.432Z,5.9
2023-04-26T09:25:45.489Z,5.8
2023-04-26T09:26:47.424Z,5.8
2023-04-26T09:27:49.429Z,5.8
2023-04-26T09:28:51.728Z,5.8
2023-04-26T09:30:55.510Z,5.9
2023-04-26T09:31:57.485Z,6
2023-04-26T09:32:59.457Z,6
2023-04-26T09:34:01.449Z,6.1
2023-04-26T09:35:03.507Z,6.2
2023-04-26T09:36:05.443Z,6.2
2023-04-26T09:37:09.653Z,6.2
2023-04-26T09:38:14.598Z,6.3
2023-04-26T09:39:16.444Z,6.4
2023-04-26T09:40:18.202Z,6.4
2023-04-26T09:41:20.194Z,6.4
2023-04-26T09:42:23.198Z,6.4
2023-04-26T09:43:25.209Z,6.4
2023-04-26T09:44:28.200Z,6.3
2023-04-26T09:45:30.292Z,6.4
2023-04-26T09:46:32.269Z,6.5
2023-04-26T09:47:34.257Z,6.6
2023-04-26T09:48:37.201Z,6.6
2023-04-26T09:49:39.231Z,6.7
2023-04-26T09:50:41.266Z,6.7
2023-04-26T09:51:43.256Z,6.8
2023-04-26T09:52:45.206Z,6.8
2023-04-26T09:53:47.307Z,6.8
2023-04-26T09:54:49.208Z,6.8
2023-04-26T09:55:51.263Z,6.8
2023-04-26T09:56:53.202Z,6.8
2023-04-26T09:57:55.205Z,6.7
2023-04-26T09:58:57.201Z,6.7
2023-04-26T09:59:59.213Z,6.7
2023-04-26T10:01:02.342Z,6.7
2023-04-26T10:02:04.208Z,6.8
2023-04-26T10:03:06.297Z,6.8
2023-04-26T10:04:08.281Z,6.9
2023-04-26T10:05:10.290Z,7
2023-04-26T10:06:13.211Z,7.1
2023-04-26T10:07:15.214Z,7.2
2023-04-26T10:08:17.213Z,7.3
2023-04-26T10:10:21.277Z,7.4
2023-04-26T10:11:23.223Z,7.7
2023-04-26T10:13:28.225Z,7.9
2023-04-26T10:14:30.221Z,7.9
2023-04-26T10:15:32.295Z,8
2023-04-26T10:16:34.294Z,8
2023-04-26T10:17:37.280Z,8.1
2023-04-26T10:18:39.290Z,8.2
2023-04-26T10:19:41.238Z,8.2
2023-04-26T10:20:43.235Z,8.3
2023-04-26T10:21:45.217Z,8.4
2023-04-26T10:22:47.277Z,8.4
2023-04-26T10:23:49.229Z,8.4
2023-04-26T10:24:51.872Z,8.4
2023-04-26T10:25:53.853Z,8.4
2023-04-26T10:26:55.917Z,8.3
2023-04-26T10:27:57.894Z,8.1
2023-04-26T10:29:02.590Z,8
2023-04-26T10:30:01.849Z,7.9
2023-04-26T10:31:03.877Z,7.8
2023-04-26T10:32:05.959Z,7.7
2023-04-26T10:33:07.908Z,7.7
2023-04-26T10:34:11.891Z,7.7
2023-04-26T10:35:11.910Z,7.7
2023-04-26T10:36:13.940Z,7.7
2023-04-26T10:37:15.850Z,7.7
2023-04-26T10:38:17.909Z,7.7
2023-04-26T10:39:19.842Z,7.7
2023-04-26T10:40:21.947Z,7.8
2023-04-26T10:41:24.927Z,7.8
2023-04-26T10:42:28.017Z,7.8
2023-04-26T10:43:29.878Z,7.8
2023-04-26T10:44:31.867Z,7.8
2023-04-26T10:45:34.910Z,7.8
2023-04-26T10:46:37.180Z,7.7
2023-04-26T10:47:38.914Z,7.7
2023-04-26T10:48:40.854Z,7.7
2023-04-26T10:49:42.856Z,7.6
2023-04-26T10:50:44.866Z,7.6
2023-04-26T10:51:46.910Z,7.6
2023-04-26T10:52:48.881Z,7.6
2023-04-26T10:53:51.032Z,7.6
2023-04-26T10:54:52.896Z,7.6
2023-04-26T10:55:54.861Z,7.7
2023-04-26T10:56:56.934Z,7.7
2023-04-26T10:57:58.872Z,7.7
2023-04-26T11:00:02.882Z,7.9
2023-04-26T11:01:04.978Z,8
2023-04-26T11:02:06.924Z,8.1
2023-04-26T11:03:21.579Z,8.2
2023-04-26T11:04:21.543Z,8.2
2023-04-26T11:05:22.695Z,8.2
2023-04-26T11:06:21.490Z,8.2
2023-04-26T11:07:21.485Z,8.2
2023-04-26T11:08:21.425Z,8.2
2023-04-26T11:09:21.460Z,8.2
2023-04-26T11:10:36.298Z,8.1
2023-04-26T11:12:28.934Z,8
2023-04-26T11:13:30.875Z,8
2023-04-26T11:15:35.894Z,7.9
2023-04-26T11:16:37.922Z,7.8
2023-04-26T11:17:40.053Z,7.7
2023-04-26T11:18:41.927Z,7.7
2023-04-26T11:19:43.891Z,7.7
2023-04-26T11:20:45.886Z,7.6
2023-04-26T11:21:47.908Z,7.7
2023-04-26T11:22:50.938Z,7.7
2023-04-26T11:23:52.899Z,7.8
2023-04-26T11:25:56.883Z,8
2023-04-26T11:26:58.925Z,8.1
2023-04-26T11:28:00.902Z,8.2
2023-04-26T11:30:04.912Z,8.3
2023-04-26T11:31:06.917Z,8.4
2023-04-26T11:32:08.954Z,8.4
2023-04-26T11:34:13.921Z,8.4
2023-04-26T11:35:15.894Z,8.4
2023-04-26T11:36:17.903Z,8.4
2023-04-26T11:37:19.955Z,8.5
2023-04-26T11:38:21.896Z,8.4
2023-04-26T11:40:27.912Z,8.4
2023-04-26T11:41:29.918Z,8.4
2023-04-26T11:42:32.965Z,8.4
2023-04-26T11:44:37.943Z,8.3
2023-04-26T11:45:40.930Z,8.3
2023-04-26T11:46:42.968Z,8.2
2023-04-26T11:47:45.072Z,8.2
2023-04-26T11:48:46.910Z,8.2
2023-04-26T11:49:48.897Z,8.2
2023-04-26T11:50:50.910Z,8.2
2023-04-26T11:51:52.910Z,8.2
2023-04-26T11:52:55.034Z,8.2
2023-04-26T11:53:56.919Z,8.2
2023-04-26T11:54:58.981Z,8.3
2023-04-26T11:56:21.513Z,8.3
2023-04-26T11:57:21.467Z,8.4
2023-04-26T11:59:21.520Z,8.5
2023-04-26T12:00:21.480Z,8.6
2023-04-26T12:01:21.457Z,8.7
2023-04-26T12:02:21.531Z,8.8
2023-04-26T12:03:21.755Z,8.9
2023-04-26T12:04:21.651Z,9
2023-04-26T12:05:21.456Z,9
2023-04-26T12:06:21.477Z,9.1
2023-04-26T12:07:22.976Z,9
2023-04-26T12:08:24.930Z,9
2023-04-26T12:09:28.925Z,9
2023-04-26T12:10:31.010Z,9
2023-04-26T12:11:32.994Z,8.9
2023-04-26T12:12:34.926Z,8.9
2023-04-26T12:13:36.919Z,8.9
2023-04-26T12:14:53.044Z,8.9
2023-04-26T12:15:41.992Z,8.9
2023-04-26T12:16:43.940Z,8.9
2023-04-26T12:17:45.990Z,8.8
2023-04-26T12:18:48.044Z,8.8
2023-04-26T12:19:49.927Z,8.8
2023-04-26T12:21:05.134Z,8.8
2023-04-26T12:21:53.932Z,8.7
2023-04-26T12:22:57.218Z,8.7
2023-04-26T12:23:58.038Z,8.7
2023-04-26T12:24:59.974Z,8.6
2023-04-26T12:26:01.975Z,8.6
2023-04-26T12:27:04.937Z,8.6
2023-04-26T12:28:06.933Z,8.6
2023-04-26T12:29:08.981Z,8.5
2023-04-26T12:30:10.992Z,8.5
2023-04-26T12:31:12.988Z,8.4
2023-04-26T12:32:14.928Z,8.4
2023-04-26T12:33:18.066Z,8.3
2023-04-26T12:34:18.933Z,8.3
2023-04-26T12:35:21.003Z,8.2
2023-04-26T12:36:23.004Z,8.2
2023-04-26T12:37:24.982Z,8.2
2023-04-26T12:38:27.942Z,8.3
2023-04-26T12:39:29.941Z,8.3
2023-04-26T12:40:31.943Z,8.3
2023-04-26T12:41:34.028Z,8.3
2023-04-26T12:42:35.952Z,8.4
2023-04-26T12:43:37.943Z,8.5
2023-04-26T12:44:40.962Z,8.6
2023-04-26T12:46:21.735Z,8.7
2023-04-26T12:47:21.587Z,8.7
2023-04-26T12:48:21.617Z,8.7
2023-04-26T12:49:21.574Z,8.8
2023-04-26T12:50:21.552Z,8.8
2023-04-26T12:51:21.498Z,8.8
2023-04-26T12:52:21.514Z,8.8
2023-04-26T12:53:21.511Z,8.8
2023-04-26T12:54:21.780Z,8.8
2023-04-26T12:55:21.547Z,8.9
2023-04-26T12:56:21.507Z,9
2023-04-26T12:57:21.495Z,9
2023-04-26T12:58:21.507Z,9
2023-04-26T12:59:21.558Z,9
2023-04-26T13:00:21.533Z,9
2023-04-26T13:01:21.599Z,8.9
2023-04-26T13:02:21.619Z,8.8
2023-04-26T13:03:21.764Z,8.8
2023-04-26T13:04:21.818Z,8.8
2023-04-26T13:06:23.035Z,8.8
2023-04-26T13:07:28.980Z,8.8
2023-04-26T13:09:34.281Z,8.7
2023-04-26T13:10:37.010Z,8.8
2023-04-26T13:11:38.980Z,8.8
2023-04-26T13:12:40.966Z,8.8
2023-04-26T13:13:44.663Z,8.8
2023-04-26T13:14:45.018Z,8.9
2023-04-26T13:15:47.049Z,9
2023-04-26T13:16:49.975Z,9
2023-04-26T13:18:53.988Z,9.1
2023-04-26T13:19:56.004Z,9
2023-04-26T13:20:59.038Z,9
2023-04-26T13:23:03.041Z,8.9
2023-04-26T13:24:04.981Z,8.8
2023-04-26T13:25:07.046Z,8.7
2023-04-26T13:26:09.973Z,8.7
2023-04-26T13:27:11.984Z,8.8
2023-04-26T13:28:14.250Z,8.8
2023-04-26T13:29:16.993Z,8.8
2023-04-26T13:30:19.037Z,8.9
2023-04-26T13:31:21.004Z,9
2023-04-26T13:32:23.054Z,9
2023-04-26T13:33:24.992Z,9
2023-04-26T13:34:28.990Z,9
2023-04-26T13:37:35.725Z,9
2023-04-26T13:38:37.739Z,9
2023-04-26T13:39:39.646Z,8.9
2023-04-26T13:40:41.691Z,8.9
2023-04-26T13:41:43.675Z,8.9
2023-04-26T13:42:59.115Z,8.9
2023-04-26T13:43:48.645Z,8.8
2023-04-26T13:45:05.052Z,8.8
2023-04-26T13:45:54.760Z,8.8
2023-04-26T13:46:56.674Z,8.8
2023-04-26T13:47:58.692Z,8.8
2023-04-26T13:49:00.651Z,8.8
2023-04-26T13:50:02.647Z,8.7
2023-04-26T13:51:21.539Z,8.7
2023-04-26T13:52:21.622Z,8.6
2023-04-26T13:54:10.702Z,8.6
2023-04-26T13:55:12.650Z,8.6
2023-04-26T13:56:14.660Z,8.6
2023-04-26T13:57:16.641Z,8.5
2023-04-26T13:58:18.704Z,8.6
2023-04-26T13:59:21.552Z,8.5
2023-04-26T14:00:22.644Z,8.5
2023-04-26T14:02:27.873Z,8.5
2023-04-26T14:03:29.836Z,8.5
2023-04-26T14:04:31.949Z,8.5
2023-04-26T14:05:33.654Z,8.6
2023-04-26T14:06:36.728Z,8.6
2023-04-26T14:07:38.647Z,8.6
2023-04-26T14:08:41.687Z,8.6
2023-04-26T14:09:43.834Z,8.6
2023-04-26T14:11:57.115Z,8.5
2023-04-26T14:12:49.653Z,8.5
2023-04-26T14:13:53.275Z,8.5
2023-04-26T14:14:53.676Z,8.5
2023-04-26T14:15:55.733Z,8.5
2023-04-26T14:16:57.712Z,8.5
2023-04-26T14:17:59.720Z,8.5
2023-04-26T14:19:01.682Z,8.5
2023-04-26T14:20:03.753Z,8.5
2023-04-26T14:21:05.660Z,8.6
2023-04-26T14:22:07.673Z,8.6
2023-04-26T14:23:09.679Z,8.7
2023-04-26T14:24:11.669Z,8.7
2023-04-26T14:25:13.830Z,8.7
2023-04-26T14:26:15.656Z,8.7
2023-04-26T14:28:19.671Z,8.7
2023-04-26T14:29:21.682Z,8.7
2023-04-26T14:30:24.745Z,8.7
2023-04-26T14:31:27.686Z,8.7
2023-04-26T14:32:29.741Z,8.7
2023-04-26T14:33:31.718Z,8.7
2023-04-26T14:34:33.667Z,8.7
2023-04-26T14:36:53.182Z,8.7
2023-04-26T14:39:23.339Z,8.7
2023-04-26T14:40:21.632Z,8.7
2023-04-26T14:41:21.595Z,8.7
2023-04-26T14:42:21.577Z,8.6
2023-04-26T14:43:21.572Z,8.6
2023-04-26T14:44:21.633Z,8.6
2023-04-26T14:45:25.598Z,8.6
2023-04-26T14:46:21.626Z,8.6
2023-04-26T14:47:21.619Z,8.6
2023-04-26T14:48:22.574Z,8.6
2023-04-26T14:49:24.558Z,8.6
2023-04-26T14:50:41.210Z,8.6
2023-04-26T14:52:21.592Z,8.6
2023-04-26T14:53:21.595Z,8.6
2023-04-26T14:54:21.599Z,8.6
2023-04-26T14:55:21.652Z,8.5
2023-04-26T14:56:35.226Z,8.5
2023-04-26T14:57:21.591Z,8.5
2023-04-26T14:58:22.332Z,8.5
2023-04-26T14:59:21.590Z,8.5
2023-04-26T15:00:21.573Z,8.4
2023-04-26T15:02:21.775Z,8.4
2023-04-26T15:03:22.785Z,8.4
2023-04-26T15:04:22.365Z,8.4
2023-04-26T15:05:21.654Z,8.4
2023-04-26T15:06:24.020Z,8.4
2023-04-26T15:07:31.789Z,8.4
2023-04-26T15:08:22.185Z,8.4
2023-04-26T15:09:21.614Z,8.4
2023-04-26T15:10:21.682Z,8.4
2023-04-26T15:11:21.708Z,8.5
2023-04-26T15:13:22.285Z,8.6
2023-04-26T15:15:18.571Z,8.6
2023-04-26T15:16:20.607Z,8.6
2023-04-26T15:17:22.599Z,8.8
2023-04-26T15:18:24.707Z,8.8
2023-04-26T15:19:26.584Z,8.8
2023-04-26T15:20:28.602Z,8.8
2023-04-26T15:22:34.147Z,8.8
2023-04-26T15:23:35.635Z,8.8
2023-04-26T15:24:37.590Z,8.9
2023-04-26T15:26:41.664Z,8.9
2023-04-26T15:28:46.642Z,8.8
2023-04-26T15:29:48.590Z,8.8
2023-04-26T15:30:50.616Z,8.8
2023-04-26T15:31:52.630Z,8.8
2023-04-26T15:32:54.710Z,8.8
2023-04-26T15:33:57.642Z,8.8
2023-04-26T15:34:59.589Z,8.7
2023-04-26T15:36:01.656Z,8.7
2023-04-26T15:37:03.587Z,8.6
2023-04-26T15:38:05.634Z,8.6
2023-04-26T15:39:07.667Z,8.6
2023-04-26T15:40:09.672Z,8.6